EW9558 Weather Reports


Display with metric or nautical units.
time (UTC)temp
F
wind
direction
speed
MPH
gust
MPH
rain 1hr
in
rain 24hr
in
rain mn
in
humidity
%
barometer
mb
20190116160712 46 286 0.0 1.0 0.00 0.00 0.00 65 1010.6
20190116160211 46 290 0.0 0.0 0.00 0.00 0.00 64 1010.4
20190116155713 46 299 0.0 1.0 0.00 0.00 0.00 64 1010.3
20190116155216 46 267 0.0 1.0 0.00 0.00 0.00 64 1010.2
20190116154714 46 284 0.0 0.0 0.00 0.00 0.00 65 1010.2
20190116154212 46 263 0.0 27.0 0.00 0.00 0.00 66 1010.2
20190116153710 46 282 7.0 36.0 0.00 0.00 0.00 67 1010.2
20190116153208 46 296 11.0 36.0 0.00 0.00 0.00 69 1010.2
20190116152709 47 281 13.0 34.0 0.00 0.00 0.00 71 1010.1
20190116152207 47 283 11.0 33.0 0.00 0.00 0.00 71 1010.0
20190116151707 47 275 13.0 33.0 0.00 0.00 0.00 73 1009.9
20190116151208 47 287 13.0 23.0 0.00 0.00 0.00 75 1010.0
20190116150704 47 298 9.0 25.0 0.00 0.00 0.00 76 1010.0
20190116150222 46 314 14.0 25.0 0.00 0.00 0.00 77 1010.0
20190116145723 46 295 15.0 22.0 0.00 0.00 0.00 78 1009.8
20190116145222 46 281 11.0 25.0 0.00 0.00 0.00 79 1009.6
20190116144720 46 286 11.0 27.0 0.00 0.00 0.00 79 1009.5
20190116144221 46 284 16.0 27.0 0.00 0.00 0.00 79 1009.4
20190116143706 46 288 15.0 37.0 0.00 0.00 0.00 79 1009.3
20190116143206 47 290 11.0 42.0 0.00 0.00 0.00 79 1009.4
20190116142707 47 290 16.0 42.0 0.00 0.00 0.00 77 1009.5
20190116142207 48 327 13.0 34.0 0.00 0.00 0.00 74 1009.4
20190116141707 50 300 0.0 10.0 0.00 0.00 0.00 64 1008.9
20190116141208 51 287 1.0 10.0 0.00 0.00 0.00 55 1008.6
20190116140206 53 265 0.0 1.0 0.00 0.00 0.00 45 1008.1
20190116135707 53 280 0.0 0.0 0.00 0.00 0.00 44 1008.2
20190116135207 53 297 0.0 1.0 0.00 0.00 0.00 42 1008.2
20190116134708 53 296 0.0 1.0 0.00 0.00 0.00 42 1008.3
20190116134209 54 246 0.0 1.0 0.00 0.00 0.00 40 1008.4
20190116133710 54 291 0.0 1.0 0.00 0.00 0.00 38 1008.3
20190116133211 54 290 0.0 1.0 0.00 0.00 0.00 37 1008.3
20190116132712 54 281 0.0 1.0 0.00 0.00 0.00 37 1008.1
20190116132218 54 291 0.0 10.0 0.00 0.00 0.00 38 1008.2
20190116131717 54 257 1.0 10.0 0.00 0.00 0.00 39 1008.2
20190116131216 54 277 0.0 2.0 0.00 0.00 0.00 37 1008.2
20190116130713 54 304 0.0 21.0 0.00 0.00 0.00 36 1008.1
20190116130213 55 273 0.0 32.0 0.00 0.00 0.00 37 1008.1
20190116125714 55 260 18.0 32.0 0.00 0.00 0.00 37 1008.0
20190116125213 55 274 3.0 30.0 0.00 0.00 0.00 37 1007.9
20190116124714 55 261 0.0 1.0 0.00 0.00 0.00 36 1007.8
20190116124214 55 262 0.0 0.0 0.00 0.00 0.00 36 1007.8
20190116123714 55 293 0.0 0.0 0.00 0.00 0.00 35 1007.9
20190116123213 55 281 0.0 1.0 0.00 0.00 0.00 35 1008.0
20190116122712 55 272 0.0 1.0 0.00 0.00 0.00 35 1008.0
20190116122211 55 266 0.0 1.0 0.00 0.00 0.00 36 1008.0
20190116121713 55 266 0.0 1.0 0.00 0.00 0.00 36 1008.3
20190116121211 55 294 0.0 1.0 0.00 0.00 0.00 36 1008.3
20190116120708 56 297 0.0 1.0 0.00 0.00 0.00 35 1008.3
20190116120208 56 286 0.0 1.0 0.00 0.00 0.00 35 1008.1
20190116115708 56 275 0.0 2.0 0.00 0.00 0.00 35 1008.0
20190116115209 56 264 0.0 2.0 0.00 0.00 0.00 35 1008.0
20190116114705 56 271 0.0 1.0 0.00 0.00 0.00 34 1008.0
20190116114204 56 284 0.0 1.0 0.00 0.00 0.00 33 1007.9
20190116113723 56 254 0.0 1.0 0.00 0.00 0.00 31 1007.8
20190116113205 56 261 0.0 25.0 0.00 0.00 0.00 34 1007.9
20190116112704 56 290 5.0 29.0 0.00 0.00 0.00 34 1007.8
20190116112205 56 267 18.0 29.0 0.00 0.00 0.00 33 1007.8
20190116111706 56 289 5.0 29.0 0.00 0.00 0.00 33 1007.9
20190116111209 56 288 6.0 31.0 0.00 0.00 0.00 31 1007.9
20190116110708 57 283 8.0 33.0 0.00 0.00 0.00 28 1007.8
20190116110208 57 291 18.0 33.0 0.00 0.00 0.00 30 1007.9
20190116105708 57 255 9.0 26.0 0.00 0.00 0.00 30 1008.0
20190116105209 57 284 0.0 27.0 0.00 0.00 0.00 30 1008.1
20190116104709 56 274 17.0 27.0 0.00 0.00 0.00 30 1008.2
20190116104209 56 255 7.0 29.0 0.00 0.00 0.00 31 1008.2
20190116103710 56 257 15.0 29.0 0.00 0.00 0.00 31 1008.3
20190116102722 56 296 0.0 27.0 0.00 0.00 0.00 32 1008.4
20190116102220 56 275 4.0 27.0 0.00 0.00 0.00 32 1008.4
20190116101721 56 284 3.0 28.0 0.00 0.00 0.00 32 1008.6
20190116101217 56 269 3.0 28.0 0.00 0.00 0.00 31 1008.7
20190116100702 56 276 11.0 26.0 0.00 0.00 0.00 31 1008.9
20190116100213 56 280 14.0 32.0 0.00 0.00 0.00 31 1009.0
20190116095720 56 252 15.0 32.0 0.00 0.00 0.00 31 1009.1
20190116095208 56 289 13.0 31.0 0.00 0.00 0.00 31 1009.4
20190116094716 56 290 15.0 31.0 0.00 0.00 0.00 31 1009.4
20190116094204 56 266 16.0 28.0 0.00 0.00 0.00 31 1009.5
20190116093713 56 269 12.0 28.0 0.00 0.00 0.00 31 1009.5
20190116093220 56 255 18.0 30.0 0.00 0.00 0.00 31 1009.7
20190116092705 56 242 13.0 30.0 0.00 0.00 0.00 31 1009.6
20190116092213 56 276 17.0 26.0 0.00 0.00 0.00 31 1009.6
20190116091706 56 266 16.0 30.0 0.00 0.00 0.00 32 1009.8
20190116091213 55 266 18.0 30.0 0.00 0.00 0.00 31 1009.9
20190116090701 55 286 12.0 28.0 0.00 0.00 0.00 31 1009.9
20190116090208 56 259 16.0 28.0 0.00 0.00 0.00 32 1010.0
20190116085717 55 260 16.0 28.0 0.00 0.00 0.00 31 1010.0
20190116085204 56 263 13.0 26.0 0.00 0.00 0.00 31 1010.2
20190116084712 55 248 16.0 29.0 0.00 0.00 0.00 31 1010.3
20190116084219 55 267 8.0 29.0 0.00 0.00 0.00 31 1010.3
20190116083708 55 291 18.0 27.0 0.00 0.00 0.00 31 1010.3
20190116083216 55 275 13.0 25.0 0.00 0.00 0.00 31 1010.4
20190116082708 55 260 16.0 25.0 0.00 0.00 0.00 31 1010.5
20190116082215 55 261 8.0 28.0 0.00 0.00 0.00 32 1010.7
20190116081703 55 258 17.0 28.0 0.00 0.00 0.00 31 1010.9
20190116081210 55 275 15.0 28.0 0.00 0.00 0.00 32 1010.8
20190116080717 55 285 15.0 30.0 0.00 0.00 0.00 31 1010.9
20190116080204 54 223 12.0 30.0 0.00 0.00 0.00 31 1011.0
20190116075711 54 286 16.0 30.0 0.00 0.00 0.00 31 1011.1
20190116075219 54 260 13.0 29.0 0.00 0.00 0.00 32 1011.1
20190116074707 54 312 14.0 26.0 0.00 0.00 0.00 32 1011.0
20190116074217 54 257 16.0 30.0 0.00 0.00 0.00 32 1011.1
20190116073704 54 273 16.0 30.0 0.00 0.00 0.00 32 1011.1
20190116073212 54 248 14.0 27.0 0.00 0.00 0.00 32 1011.1
20190116072718 54 253 11.0 27.0 0.00 0.00 0.00 32 1011.1
20190116072206 53 287 11.0 28.0 0.00 0.00 0.00 32 1011.2
20190116071713 53 254 12.0 28.0 0.00 0.00 0.00 32 1011.2
20190116071221 53 285 11.0 27.0 0.00 0.00 0.00 32 1011.2
20190116070709 53 252 9.0 22.0 0.00 0.00 0.00 32 1011.1
20190116070216 52 261 12.0 20.0 0.00 0.00 0.00 32 1011.2
20190116065704 52 268 12.0 20.0 0.00 0.00 0.00 32 1011.3
20190116065211 52 237 8.0 20.0 0.00 0.00 0.00 32 1011.3
20190116064719 52 250 8.0 18.0 0.00 0.00 0.00 32 1011.3
20190116064207 52 262 10.0 20.0 0.00 0.00 0.00 31 1011.2
20190116063715 52 252 10.0 20.0 0.00 0.00 0.00 31 1011.2
20190116063202 52 231 11.0 20.0 0.00 0.00 0.00 31 1011.1
20190116062711 52 263 9.0 23.0 0.00 0.00 0.00 32 1011.1
20190116062218 51 244 14.0 22.0 0.00 0.00 0.00 31 1011.1
20190116061705 51 244 8.0 20.0 0.00 0.00 0.00 32 1011.1
20190116061212 51 257 9.0 18.0 0.00 0.00 0.00 33 1011.1
20190116060704 51 269 7.0 17.0 0.00 0.00 0.00 34 1011.0
20190116060211 51 242 8.0 19.0 0.00 0.00 0.00 34 1011.0
20190116055719 51 259 7.0 19.0 0.00 0.00 0.00 35 1011.0
20190116055206 50 258 9.0 18.0 0.00 0.00 0.00 35 1011.0
20190116054712 50 252 8.0 17.0 0.00 0.00 0.00 36 1010.9
20190116054219 50 237 11.0 17.0 0.00 0.00 0.00 36 1010.9
20190116053707 50 267 7.0 18.0 0.00 0.00 0.00 37 1010.9
20190116053215 50 267 10.0 18.0 0.00 0.00 0.00 37 1010.8
20190116052703 50 247 8.0 17.0 0.00 0.00 0.00 38 1010.8
20190116052215 50 243 10.0 17.0 0.00 0.00 0.00 38 1010.6
20190116051703 50 250 6.0 15.0 0.00 0.00 0.00 39 1010.6
20190116051210 50 252 6.0 15.0 0.00 0.00 0.00 40 1010.7
20190116050718 49 252 10.0 15.0 0.00 0.00 0.00 40 1010.7
20190116050205 49 296 6.0 14.0 0.00 0.00 0.00 42 1010.8
20190116045713 49 256 7.0 15.0 0.00 0.00 0.00 42 1010.8
20190116045221 49 249 9.0 15.0 0.00 0.00 0.00 42 1010.9
20190116044709 49 222 5.0 18.0 0.00 0.00 0.00 42 1010.9
20190116044216 49 271 6.0 18.0 0.00 0.00 0.00 42 1010.9
20190116043708 49 281 8.0 15.0 0.00 0.00 0.00 42 1010.9
20190116043216 49 264 2.0 13.0 0.00 0.00 0.00 42 1010.8
20190116042704 48 252 0.0 15.0 0.00 0.00 0.00 42 1010.7
20190116042212 48 236 5.0 15.0 0.00 0.00 0.00 41 1010.7
20190116041719 49 275 8.0 14.0 0.00 0.00 0.00 40 1010.8
20190116041207 49 231 7.0 17.0 0.00 0.00 0.00 39 1010.7
20190116040715 49 269 6.0 17.0 0.00 0.00 0.00 39 1010.7
20190116040203 48 249 9.0 17.0 0.00 0.00 0.00 38 1010.6
20190116035710 48 258 7.0 19.0 0.00 0.00 0.00 38 1010.6
20190116035202 48 257 9.0 19.0 0.00 0.00 0.00 37 1010.6
20190116034710 48 265 6.0 17.0 0.00 0.00 0.00 37 1010.7
20190116034218 48 265 5.0 12.0 0.00 0.00 0.00 37 1010.8
20190116033706 48 256 7.0 15.0 0.00 0.00 0.00 37 1010.9
20190116033214 48 250 5.0 12.0 0.00 0.00 0.00 38 1010.9
20190116032721 48 288 7.0 12.0 0.00 0.00 0.00 38 1011.0
20190116032209 47 274 1.0 9.0 0.00 0.00 0.00 39 1011.1
20190116031717 47 247 4.0 13.0 0.00 0.00 0.00 39 1011.0
20190116031204 47 249 6.0 13.0 0.00 0.00 0.00 40 1011.0
20190116030712 47 242 3.0 12.0 0.00 0.00 0.00 40 1011.1
20190116030220 47 253 4.0 12.0 0.00 0.00 0.00 40 1011.1
20190116025708 47 247 3.0 10.0 0.00 0.00 0.00 41 1011.0
20190116025216 47 217 4.0 10.0 0.00 0.00 0.00 41 1011.0
20190116024704 47 228 5.0 10.0 0.00 0.00 0.00 42 1011.0
20190116024212 47 253 4.0 10.0 0.00 0.00 0.00 43 1011.0
20190116023720 47 249 4.0 8.0 0.00 0.00 0.00 43 1011.0
20190116023207 47 255 3.0 11.0 0.00 0.00 0.00 44 1011.0
20190116022715 47 255 5.0 11.0 0.00 0.00 0.00 44 1011.1
20190116022202 47 267 5.0 13.0 0.00 0.00 0.00 45 1011.0
20190116021714 47 261 8.0 13.0 0.00 0.00 0.00 45 1011.1
20190116021202 47 279 6.0 11.0 0.00 0.00 0.00 46 1011.1
20190116020710 47 254 7.0 14.0 0.00 0.00 0.00 46 1011.1
20190116020217 47 254 4.0 14.0 0.00 0.00 0.00 46 1011.1
20190116015705 47 262 4.0 8.0 0.00 0.00 0.00 46 1011.1
20190116015214 47 259 5.0 8.0 0.00 0.00 0.00 46 1011.1
20190116014702 47 257 4.0 8.0 0.00 0.00 0.00 47 1011.2
20190116014209 47 257 4.0 9.0 0.00 0.00 0.00 46 1011.3
20190116013717 47 256 4.0 10.0 0.00 0.00 0.00 46 1011.4
20190116013208 47 258 4.0 11.0 0.00 0.00 0.00 47 1011.5
20190116012715 47 242 5.0 11.0 0.00 0.00 0.00 49 1011.5
20190116012203 46 246 2.0 8.0 0.00 0.00 0.00 50 1011.6
20190116011710 45 246 3.0 8.0 0.00 0.00 0.00 52 1011.7
20190116011218 45 246 0.0 4.0 0.00 0.00 0.00 53 1011.8
20190116010705 44 246 2.0 4.0 0.00 0.00 0.00 54 1011.8
20190116010212 44 246 1.0 3.0 0.00 0.00 0.00 55 1011.9
20190116005720 44 246 0.0 0.0 0.00 0.00 0.00 55 1011.9
20190116005208 44 246 0.0 0.0 0.00 0.00 0.00 55 1012.0
20190116004714 44 246 0.0 0.0 0.00 0.00 0.00 55 1012.0
20190116004206 44 246 0.0 1.0 0.00 0.00 0.00 54 1012.1
20190116003713 44 246 0.0 1.0 0.00 0.00 0.00 55 1012.1
20190116003221 44 246 0.0 1.0 0.00 0.00 0.00 54 1012.1
20190116002709 44 246 0.0 0.0 0.00 0.00 0.00 54 1012.1
20190116002216 45 246 0.0 0.0 0.00 0.00 0.00 53 1012.1
20190116001704 45 246 0.0 2.0 0.00 0.00 0.00 53 1012.2
20190116001210 45 246 0.0 3.0 0.00 0.00 0.00 53 1012.2
20190116000718 46 246 1.0 3.0 0.00 0.00 0.00 52 1012.1
20190116000206 46 246 2.0 4.0 0.00 0.00 0.00 52 1012.2
20190115235718 46 246 1.0 4.0 0.00 0.00 0.00 52 1012.1
20190115235206 46 246 1.0 4.0 0.00 0.00 0.00 51 1012.1
20190115234714 46 246 1.0 4.0 0.00 0.00 0.00 51 1012.0
20190115234221 47 246 0.0 4.0 0.00 0.00 0.00 50 1012.0
20190115233709 47 246 1.0 7.0 0.00 0.00 0.00 50 1012.0
20190115233217 47 246 3.0 8.0 0.00 0.00 0.00 49 1012.1
20190115232705 47 246 3.0 9.0 0.00 0.00 0.00 49 1012.1
20190115232212 47 244 4.0 9.0 0.00 0.00 0.00 49 1012.1
20190115231719 47 242 3.0 11.0 0.00 0.00 0.00 49 1012.1
20190115231211 47 241 4.0 11.0 0.00 0.00 0.00 49 1012.1
20190115230718 47 257 3.0 6.0 0.00 0.00 0.00 49 1012.2
20190115230206 47 257 1.0 4.0 0.00 0.00 0.00 49 1012.3
20190115225714 47 257 0.0 4.0 0.00 0.00 0.00 49 1012.4
20190115225221 47 257 2.0 10.0 0.00 0.00 0.00 50 1012.3
20190115224708 46 257 3.0 10.0 0.00 0.00 0.00 51 1012.3
20190115224216 46 262 3.0 7.0 0.00 0.00 0.00 52 1012.3
20190115223703 46 262 0.0 0.0 0.00 0.00 0.00 52 1012.3
20190115223211 46 262 0.0 0.0 0.00 0.00 0.00 51 1012.4
20190115222717 46 262 0.0 0.0 0.00 0.00 0.00 51 1012.4
20190115222209 46 262 0.0 0.0 0.00 0.00 0.00 50 1012.5
20190115221717 46 262 0.0 0.0 0.00 0.00 0.00 50 1012.4
20190115221205 46 262 0.0 0.0 0.00 0.00 0.00 50 1012.5
20190115220713 46 262 0.0 0.0 0.00 0.00 0.00 50 1012.6
20190115220220 46 262 0.0 0.0 0.00 0.00 0.00 50 1012.7
20190115215708 46 262 0.0 0.0 0.00 0.00 0.00 50 1012.7
20190115215216 46 262 0.0 0.0 0.00 0.00 0.00 50 1012.8
20190115214703 46 262 0.0 0.0 0.00 0.00 0.00 50 1012.9
20190115214210 46 262 0.0 0.0 0.00 0.00 0.00 50 1013.0
20190115213702 47 262 0.0 0.0 0.00 0.00 0.00 49 1013.1
20190115213209 47 262 0.0 0.0 0.00 0.00 0.00 49 1013.1
20190115212716 47 262 0.0 0.0 0.00 0.00 0.00 49 1013.1
20190115212204 47 262 0.0 0.0 0.00 0.00 0.00 48 1013.1
20190115211711 47 262 0.0 0.0 0.00 0.00 0.00 48 1013.2
20190115211219 47 262 0.0 0.0 0.00 0.00 0.00 48 1013.1
20190115210707 47 262 0.0 2.0 0.00 0.00 0.00 48 1013.2
20190115210216 47 262 0.0 3.0 0.00 0.00 0.00 48 1013.2
20190115205720 47 262 1.0 3.0 0.00 0.00 0.00 48 1013.2
20190115205212 47 262 0.0 1.0 0.00 0.00 0.00 48 1013.2
20190115204718 47 262 0.0 2.0 0.00 0.00 0.00 48 1013.2
20190115204204 47 262 0.0 4.0 0.00 0.00 0.00 47 1013.3
20190115203711 47 262 1.0 4.0 0.00 0.00 0.00 47 1013.4
20190115203216 48 262 0.0 2.0 0.00 0.00 0.00 46 1013.4
20190115202705 48 262 0.0 4.0 0.00 0.00 0.00 46 1013.4
20190115202212 48 262 1.0 6.0 0.00 0.00 0.00 46 1013.5
20190115201721 48 262 2.0 6.0 0.00 0.00 0.00 46 1013.4
20190115201208 48 262 0.0 2.0 0.00 0.00 0.00 46 1013.4
20190115200715 48 262 0.0 4.0 0.00 0.00 0.00 46 1013.4
20190115200206 48 262 2.0 4.0 0.00 0.00 0.00 45 1013.4
20190115195714 48 262 1.0 4.0 0.00 0.00 0.00 45 1013.4
20190115195202 48 262 1.0 4.0 0.00 0.00 0.00 46 1013.4
20190115194709 48 262 0.0 0.0 0.00 0.00 0.00 45 1013.4
20190115194216 48 262 0.0 0.0 0.00 0.00 0.00 45 1013.5
20190115193704 48 262 0.0 0.0 0.00 0.00 0.00 45 1013.4
20190115193210 48 262 0.0 0.0 0.00 0.00 0.00 45 1013.4
20190115192717 48 262 0.0 0.0 0.00 0.00 0.00 45 1013.4
20190115192205 48 262 0.0 0.0 0.00 0.00 0.00 45 1013.4
20190115191717 48 262 0.0 0.0 0.00 0.00 0.00 44 1013.4
20190115191205 49 262 0.0 0.0 0.00 0.00 0.00 44 1013.4
20190115190710 49 262 0.0 2.0 0.00 0.00 0.00 43 1013.3
20190115190218 49 262 0.0 2.0 0.00 0.00 0.00 43 1013.3
20190115185706 50 262 0.0 3.0 0.00 0.00 0.00 43 1013.3
20190115185213 50 262 1.0 3.0 0.00 0.00 0.00 42 1013.3
20190115184721 50 262 1.0 3.0 0.00 0.00 0.00 42 1013.3
20190115184209 50 262 0.0 3.0 0.00 0.00 0.00 41 1013.3
20190115183716 51 262 2.0 3.0 0.00 0.00 0.00 41 1013.3
20190115183206 51 262 0.0 6.0 0.00 0.00 0.00 41 1013.4
20190115182713 51 262 1.0 7.0 0.00 0.00 0.00 40 1013.4
20190115182221 51 262 2.0 7.0 0.00 0.00 0.00 40 1013.4
20190115181708 51 262 0.0 4.0 0.00 0.00 0.00 40 1013.4
20190115181213 51 262 0.0 0.0 0.00 0.00 0.00 41 1013.4
20190115180721 51 262 0.0 0.0 0.00 0.00 0.00 42 1013.3
20190115180209 52 262 0.0 0.0 0.00 0.00 0.00 42 1013.4
20190115175717 52 262 0.0 0.0 0.00 0.00 0.00 42 1013.4
20190115175205 52 262 0.0 0.0 0.00 0.00 0.00 43 1013.4
20190115174713 52 262 0.0 0.0 0.00 0.00 0.00 43 1013.4
20190115174204 52 262 0.0 0.0 0.00 0.00 0.00 44 1013.3
20190115173712 51 262 0.0 0.0 0.00 0.00 0.00 44 1013.3
20190115173220 51 262 0.0 0.0 0.00 0.00 0.00 46 1013.3
20190115172707 51 262 0.0 0.0 0.00 0.00 0.00 45 1013.3
20190115172211 51 262 0.0 0.0 0.00 0.00 0.00 45 1013.2
20190115171719 52 262 0.0 0.0 0.00 0.00 0.00 45 1013.2
20190115171206 52 262 0.0 0.0 0.00 0.00 0.00 45 1013.2
20190115170714 52 262 0.0 0.0 0.00 0.00 0.00 44 1013.2
20190115170202 52 262 0.0 0.0 0.00 0.00 0.00 43 1013.2
20190115165713 52 262 0.0 0.0 0.00 0.00 0.00 42 1013.2
20190115165221 53 262 0.0 0.0 0.00 0.00 0.00 42 1013.2
20190115164709 53 262 0.0 0.0 0.00 0.00 0.00 41 1013.2
20190115164216 53 262 0.0 0.0 0.00 0.00 0.00 41 1013.1
20190115163704 53 262 0.0 0.0 0.00 0.00 0.00 41 1013.1
20190115163211 53 262 0.0 0.0 0.00 0.00 0.00 40 1013.1
20190115162719 53 262 0.0 0.0 0.00 0.00 0.00 40 1013.1
20190115162207 53 262 0.0 0.0 0.00 0.00 0.00 40 1013.0
20190115161711 53 262 0.0 0.0 0.00 0.00 0.00 39 1013.0